Time;durP1;ratioP1;P1;durP2;ratioP2;P2;SDS_P1;SDS_P2;PMS_P1;PMS_P2;Temp;Humidity;BMP_temperature;BMP_pressure;BME280_temperature;BME280_humidity;BME280_pressure;Samples;Min_cycle;Max_cycle;Signal;HPM_P1;HPM_P2
2021/12/21 00:00:40;;;;;;;28.90;11.52;;;;;;;-3.20;97.59;102792.09;5035843;28;20049;-76
2021/12/21 00:03:05;;;;;;;26.42;12.50;;;;;;;-3.12;97.90;102812.53;5035707;28;20056;-74
2021/12/21 00:05:31;;;;;;;27.40;11.57;;;;;;;-3.22;97.56;102796.28;5035999;28;20083;-81
2021/12/21 00:08:00;;;;;;;21.10;10.73;;;;;;;-3.03;97.58;102825.38;5035749;28;20053;-81
2021/12/21 00:10:32;;;;;;;23.63;12.57;;;;;;;-3.13;97.56;102810.81;5035668;28;20452;-80
2021/12/21 00:15:55;;;;;;;26.63;13.18;;;;;;;-3.05;98.03;102821.94;5035693;28;20044;-79
2021/12/21 00:23:47;;;;;;;23.92;10.90;;;;;;;-3.12;97.82;102820.09;5035933;28;20596;-81
2021/12/21 00:26:15;;;;;;;25.60;11.60;;;;;;;-3.27;97.63;102802.88;5035154;28;20032;-80
2021/12/21 00:31:14;;;;;;;28.30;11.30;;;;;;;-3.37;97.66;102782.38;5035606;28;20025;-73
2021/12/21 00:33:41;;;;;;;27.90;11.77;;;;;;;-3.35;98.20;102789.19;5035268;28;20018;-72
2021/12/21 00:36:08;;;;;;;28.20;11.30;;;;;;;-3.29;98.09;102791.88;5035312;28;20044;-72
2021/12/21 00:38:34;;;;;;;27.50;11.52;;;;;;;-3.60;97.72;102744.78;5035339;28;20385;-81
2021/12/21 00:41:00;;;;;;;22.90;10.55;;;;;;;-3.32;97.64;102801.06;5034940;28;20029;-81
2021/12/21 00:43:25;;;;;;;26.00;11.45;;;;;;;-3.38;97.78;102798.34;5035169;28;20022;-80
2021/12/21 00:45:51;;;;;;;22.83;10.98;;;;;;;-3.35;97.83;102803.47;5035017;28;20516;-82
2021/12/21 00:48:17;;;;;;;22.75;11.43;;;;;;;-3.36;97.73;102804.28;5035029;28;20044;-79
2021/12/21 00:50:43;;;;;;;29.35;11.07;;;;;;;-3.39;97.73;102805.09;5034997;28;20025;-72
2021/12/21 00:53:08;;;;;;;26.40;11.75;;;;;;;-3.46;97.61;102793.94;5034995;28;20068;-72
2021/12/21 00:55:34;;;;;;;24.75;11.45;;;;;;;-3.43;98.25;102805.81;5034068;28;20057;-72
2021/12/21 00:57:59;;;;;;;25.52;10.82;;;;;;;-3.47;97.60;102804.03;5035100;28;20033;-82
2021/12/21 01:00:25;;;;;;;25.67;11.30;;;;;;;-3.50;97.91;102809.00;5034749;28;20438;-81
2021/12/21 01:02:51;;;;;;;27.20;12.48;;;;;;;-3.50;97.81;102801.41;5017027;28;20033;-80
2021/12/21 01:05:23;;;;;;;23.73;10.15;;;;;;;-3.53;97.90;102801.34;5035046;28;20443;-81
2021/12/21 01:07:52;;;;;;;23.40;10.70;;;;;;;-3.60;97.56;102800.31;5034631;28;20050;-78
2021/12/21 01:15:52;;;;;;;25.20;12.02;;;;;;;-3.64;98.38;102793.47;5034651;28;20304;-81
2021/12/21 01:18:23;;;;;;;28.45;10.90;;;;;;;-3.69;98.52;102771.44;5034624;28;20021;-81
2021/12/21 01:21:01;;;;;;;23.70;11.30;;;;;;;-3.73;98.62;102769.66;5034616;28;20429;-81
2021/12/21 01:28:51;;;;;;;26.10;12.02;;;;;;;-3.63;98.49;102804.44;5034463;28;20038;-81
2021/12/21 01:31:26;;;;;;;24.20;11.23;;;;;;;-3.68;97.80;102798.41;5034229;28;20034;-82
2021/12/21 01:34:07;;;;;;;28.50;11.15;;;;;;;-3.93;98.33;102757.34;5034399;28;20117;-81
2021/12/21 01:36:40;;;;;;;24.48;10.90;;;;;;;-3.71;98.73;102796.66;5034220;28;20072;-73
2021/12/21 01:50:10;;;;;;;27.38;11.93;;;;;;;-3.93;97.65;102774.13;4992565;28;20126;-72
2021/12/21 01:52:36;;;;;;;27.92;12.45;;;;;;;-4.01;98.31;102750.38;4992616;28;20034;-72
2021/12/21 01:55:01;;;;;;;25.60;12.73;;;;;;;-3.90;98.00;102777.63;4992430;28;20459;-73
2021/12/21 01:57:26;;;;;;;29.75;11.57;;;;;;;-3.87;98.27;102775.16;4992079;28;20046;-74
2021/12/21 01:59:52;;;;;;;23.73;11.50;;;;;;;-3.87;98.13;102787.78;4992303;28;20039;-82
2021/12/21 02:02:20;;;;;;;22.33;11.60;;;;;;;-3.90;97.52;102787.72;4992408;28;20117;-72
2021/12/21 02:04:45;;;;;;;22.98;11.32;;;;;;;-3.92;98.08;102783.44;4992278;28;20046;-73
2021/12/21 02:07:11;;;;;;;21.20;10.98;;;;;;;-3.89;98.01;102786.91;4991224;28;20065;-73
2021/12/21 02:09:37;;;;;;;26.63;11.45;;;;;;;-3.94;97.77;102782.53;4991973;28;20510;-75
2021/12/21 02:12:11;;;;;;;28.30;11.98;;;;;;;-4.10;97.53;102756.03;4991915;28;20086;-81
2021/12/21 02:14:38;;;;;;;26.42;11.93;;;;;;;-3.96;97.65;102769.00;4992157;28;20409;-81
2021/12/21 02:20:21;;;;;;;24.08;11.35;;;;;;;-4.16;97.82;102728.09;5033412;28;20057;-73
2021/12/21 02:23:10;;;;;;;32.30;11.32;;;;;;;-4.26;97.28;102721.06;5033400;28;20026;-73
2021/12/21 02:30:45;;;;;;;22.92;10.95;;;;;;;-4.29;97.20;102738.66;5033568;28;20056;-80
2021/12/21 02:33:13;;;;;;;26.13;11.63;;;;;;;-4.52;97.46;102706.06;5033099;28;20457;-81
2021/12/21 02:35:38;;;;;;;22.20;11.43;;;;;;;-4.23;97.10;102753.94;5031788;28;20488;-80
2021/12/21 02:38:04;;;;;;;25.35;12.10;;;;;;;-4.13;97.22;102771.06;5033045;28;20021;-81
2021/12/21 02:40:29;;;;;;;25.65;11.85;;;;;;;-4.18;97.87;102767.56;5032991;28;20030;-79
2021/12/21 02:42:55;;;;;;;25.55;12.02;;;;;;;-4.27;97.54;102759.72;5032870;28;20059;-81
2021/12/21 02:45:20;;;;;;;34.25;12.70;;;;;;;-4.31;97.47;102750.38;5033221;28;20100;-82
2021/12/21 02:47:45;;;;;;;27.58;12.90;;;;;;;-4.18;97.35;102762.50;5032905;28;20025;-82
2021/12/21 02:50:11;;;;;;;29.52;13.23;;;;;;;-4.20;97.54;102759.94;5032815;28;20064;-81
2021/12/21 02:52:36;;;;;;;23.25;12.57;;;;;;;-4.21;97.47;102759.91;5032875;28;20032;-81
2021/12/21 02:55:04;;;;;;;29.13;13.00;;;;;;;-4.41;97.60;102731.59;5032847;28;20030;-82
2021/12/21 02:57:30;;;;;;;28.92;13.38;;;;;;;-4.27;97.12;102758.06;5032458;28;20030;-82
2021/12/21 02:59:56;;;;;;;27.55;13.18;;;;;;;-4.30;97.06;102757.13;5032594;28;20426;-81
2021/12/21 03:02:22;;;;;;;27.92;12.98;;;;;;;-4.28;97.24;102760.53;5032796;28;20025;-82
2021/12/21 03:04:49;;;;;;;27.17;13.77;;;;;;;-4.26;98.09;102761.44;5032794;28;20087;-82
2021/12/21 03:09:54;;;;;;;26.92;12.43;;;;;;;-4.29;98.18;102748.75;5032913;28;20143;-81
2021/12/21 03:14:49;;;;;;;28.33;12.82;;;;;;;-4.32;98.02;102748.66;5032584;28;20398;-81
2021/12/21 03:17:14;;;;;;;29.95;14.27;;;;;;;-4.43;98.59;102720.59;5032659;28;20488;-81
2021/12/21 03:19:39;;;;;;;26.33;13.20;;;;;;;-4.29;98.44;102746.22;5036248;28;20104;-80
2021/12/21 03:22:06;;;;;;;26.13;12.52;;;;;;;-4.33;98.02;102747.78;5039172;28;20080;-81
2021/12/21 03:24:31;;;;;;;30.77;13.90;;;;;;;-4.46;97.61;102735.63;5039125;28;20029;-80
2021/12/21 03:26:57;;;;;;;29.02;12.68;;;;;;;-4.41;97.37;102747.59;5037502;28;20508;-82
2021/12/21 03:29:23;;;;;;;24.83;12.18;;;;;;;-4.43;97.88;102746.66;5039260;28;20032;-82
2021/12/21 03:31:48;;;;;;;28.85;13.25;;;;;;;-4.62;97.76;102707.47;5039061;28;20366;-81
2021/12/21 03:34:13;;;;;;;30.58;14.93;;;;;;;-4.45;97.97;102739.88;5038883;28;20025;-81
2021/12/21 03:36:40;;;;;;;25.02;12.10;;;;;;;-4.43;97.50;102750.84;5039096;28;20468;-74
2021/12/21 03:39:08;;;;;;;25.05;12.65;;;;;;;-4.45;97.62;102740.72;5039181;28;20029;-81
2021/12/21 03:41:38;;;;;;;26.98;13.30;;;;;;;-4.47;97.50;102747.38;5039019;28;20097;-81
2021/12/21 03:44:04;;;;;;;30.38;12.77;;;;;;;-4.51;97.39;102742.22;5038977;28;20075;-80
2021/12/21 03:46:32;;;;;;;23.35;12.85;;;;;;;-4.61;97.60;102725.97;5038934;28;20485;-82
2021/12/21 03:49:01;;;;;;;39.55;13.20;;;;;;;-4.66;97.78;102712.34;5038725;28;20034;-81
2021/12/21 03:51:26;;;;;;;32.17;16.10;;;;;;;-4.53;98.43;102724.50;5038946;28;20025;-80
2021/12/21 03:53:51;;;;;;;27.55;13.98;;;;;;;-4.52;97.80;102740.47;5038919;28;20030;-80
2021/12/21 03:59:01;;;;;;;28.20;13.82;;;;;;;-4.57;97.42;102739.50;5038738;28;20091;-81
2021/12/21 04:01:26;;;;;;;33.20;14.52;;;;;;;-4.63;97.57;102730.09;5039041;28;20029;-82
2021/12/21 04:03:52;;;;;;;30.45;14.63;;;;;;;-4.60;97.20;102737.75;5038671;28;20034;-79
2021/12/21 04:06:17;;;;;;;35.55;14.13;;;;;;;-4.63;97.62;102740.16;5038766;28;20037;-73
2021/12/21 04:08:43;;;;;;;32.55;14.93;;;;;;;-4.78;97.37;102709.47;5038539;28;20048;-73
2021/12/21 04:11:08;;;;;;;28.52;14.35;;;;;;;-4.71;97.39;102732.41;5038726;28;20029;-74
2021/12/21 04:13:33;;;;;;;30.25;13.73;;;;;;;-4.70;97.05;102730.72;5038504;28;20021;-74
2021/12/21 04:16:01;;;;;;;30.77;14.80;;;;;;;-4.70;97.63;102735.78;5038659;28;20037;-73
2021/12/21 04:18:27;;;;;;;31.67;14.38;;;;;;;-4.80;97.97;102711.09;5038621;28;20029;-73
2021/12/21 04:20:53;;;;;;;31.95;16.25;;;;;;;-4.74;97.76;102722.19;5038612;28;20366;-74
2021/12/21 04:23:18;;;;;;;31.27;14.40;;;;;;;-4.71;97.41;102739.97;5038663;28;20380;-73
2021/12/21 04:25:44;;;;;;;32.13;14.45;;;;;;;-4.82;97.43;102723.63;5038501;28;20025;-73
2021/12/21 04:28:10;;;;;;;32.92;15.52;;;;;;;-4.69;97.81;102733.28;5038704;28;20111;-73
2021/12/21 04:30:35;;;;;;;35.17;16.27;;;;;;;-4.72;97.57;102729.81;5036657;28;20014;-81
2021/12/21 04:33:01;;;;;;;29.80;16.10;;;;;;;-4.83;97.14;102719.41;5035561;28;20034;-74
2021/12/21 04:35:26;;;;;;;39.45;15.48;;;;;;;-4.91;96.82;102711.63;5035379;28;20056;-75
2021/12/21 04:37:58;;;;;;;26.83;14.73;;;;;;;-4.78;97.13;102732.16;5035366;28;20033;-81
2021/12/21 04:40:37;;;;;;;;;;;;;;;-4.77;96.62;102731.34;5035754;28;20021;-81
2021/12/21 04:43:02;;;;;;;30.95;14.13;;;;;;;-4.80;97.02;102729.59;5035156;28;20356;-81
2021/12/21 04:45:27;;;;;;;35.25;15.82;;;;;;;-4.82;97.58;102728.66;5034995;28;20036;-80
2021/12/21 04:47:53;;;;;;;33.55;14.80;;;;;;;-4.84;97.35;102724.41;5035153;28;20021;-73
2021/12/21 04:50:18;;;;;;;31.20;14.80;;;;;;;-4.84;97.03;102716.84;5035225;28;20017;-82
2021/12/21 04:52:43;;;;;;;35.92;16.13;;;;;;;-4.83;97.51;102721.06;5035138;28;20022;-79
2021/12/21 04:55:09;;;;;;;34.10;16.20;;;;;;;-4.86;97.67;102718.47;5034955;28;20033;-80
2021/12/21 04:57:34;;;;;;;32.85;15.85;;;;;;;-4.92;96.99;102716.59;5034829;28;20026;-81
2021/12/21 05:00:00;;;;;;;32.53;15.80;;;;;;;-4.88;97.69;102720.94;5034856;28;20029;-81
2021/12/21 05:02:25;;;;;;;30.27;15.50;;;;;;;-5.03;96.92;102701.16;5034971;28;20033;-73
2021/12/21 05:04:50;;;;;;;35.15;14.95;;;;;;;-4.91;96.84;102718.34;5034907;28;20029;-73
2021/12/21 05:07:22;;;;;;;32.22;16.05;;;;;;;-4.99;96.76;102707.16;5034634;28;20041;-74
2021/12/21 05:09:55;;;;;;;37.25;16.15;;;;;;;-5.04;97.02;102709.53;5034639;28;20030;-72
2021/12/21 05:12:20;;;;;;;36.92;15.13;;;;;;;-5.16;96.90;102686.47;5034939;28;20049;-73
2021/12/21 05:14:46;;;;;;;34.90;15.13;;;;;;;-5.00;96.82;102715.53;5034322;28;20157;-74
2021/12/21 05:17:11;;;;;;;31.98;16.30;;;;;;;-5.00;97.21;102723.09;5034523;28;20030;-72
2021/12/21 05:19:36;;;;;;;31.00;16.73;;;;;;;-5.17;96.66;102689.81;5034741;28;20026;-73
2021/12/21 05:22:02;;;;;;;33.67;16.63;;;;;;;-5.40;97.17;102665.56;5034549;28;20029;-77
2021/12/21 05:24:27;;;;;;;32.70;16.30;;;;;;;-5.06;97.02;102725.41;5034395;28;20078;-73
2021/12/21 05:26:53;;;;;;;29.67;15.15;;;;;;;-5.07;97.13;102731.25;5034332;28;20040;-74
2021/12/21 05:29:19;;;;;;;31.08;14.85;;;;;;;-5.30;96.89;102698.66;5034271;28;20030;-75
2021/12/21 05:31:44;;;;;;;33.92;16.40;;;;;;;-5.04;96.72;102723.78;5034336;28;20381;-82
2021/12/21 05:34:10;;;;;;;37.83;16.48;;;;;;;-5.05;97.48;102724.59;5034451;28;20038;-81
2021/12/21 05:36:35;;;;;;;32.22;16.98;;;;;;;-5.12;97.14;102713.47;5034408;28;20033;-82
2021/12/21 05:39:04;;;;;;;34.70;17.20;;;;;;;-5.08;97.13;102714.44;5034174;28;20030;-80
2021/12/21 05:44:15;;;;;;;37.05;17.33;;;;;;;-5.12;96.94;102715.97;5034359;28;20049;-82
2021/12/21 05:46:40;;;;;;;37.88;18.08;;;;;;;-5.07;97.46;102721.19;5034120;28;20022;-81
2021/12/21 05:49:06;;;;;;;36.58;17.90;;;;;;;-5.12;97.08;102721.00;5034227;28;20466;-81
2021/12/21 05:51:31;;;;;;;36.75;18.27;;;;;;;-5.26;97.15;102690.38;5032356;28;20068;-80
2021/12/21 05:53:57;;;;;;;32.20;17.77;;;;;;;-5.27;97.55;102690.31;5033818;28;20067;-80
2021/12/21 05:56:22;;;;;;;33.60;18.23;;;;;;;-5.09;97.03;102727.84;5033705;28;20057;-82
2021/12/21 05:58:47;;;;;;;41.20;18.02;;;;;;;-5.26;97.01;102702.97;5033695;28;20108;-82
2021/12/21 06:01:13;;;;;;;36.50;18.50;;;;;;;-5.50;97.13;102659.38;5033807;28;20036;-81
2021/12/21 06:03:39;;;;;;;37.85;18.35;;;;;;;-5.20;96.45;102715.75;5033892;28;20036;-83
2021/12/21 06:06:11;;;;;;;31.92;18.02;;;;;;;-5.15;96.81;102725.09;5033876;28;20041;-82
2021/12/21 06:08:36;;;;;;;34.47;18.60;;;;;;;-5.16;96.68;102730.97;5032991;28;20067;-81
2021/12/21 06:11:05;;;;;;;38.45;18.70;;;;;;;-5.17;97.00;102721.69;5033628;28;20113;-73
2021/12/21 06:26:49;;;;;;;37.72;18.58;;;;;;;-5.20;97.33;102735.06;5033333;28;20045;-73
2021/12/21 06:29:15;;;;;;;41.13;18.75;;;;;;;-5.44;96.57;102688.91;5033090;28;20025;-83
2021/12/21 06:31:41;;;;;;;31.13;17.70;;;;;;;-5.46;96.69;102688.03;5033229;28;20112;-81
2021/12/21 06:34:07;;;;;;;42.10;19.05;;;;;;;-5.43;97.01;102694.00;5033174;28;20033;-81
2021/12/21 06:36:32;;;;;;;33.25;17.27;;;;;;;-5.27;96.78;102721.41;5033094;28;20029;-82
2021/12/21 06:38:58;;;;;;;35.55;17.63;;;;;;;-5.49;96.65;102683.75;5033092;28;20029;-81
2021/12/21 06:41:23;;;;;;;40.25;20.90;;;;;;;-5.40;97.08;102694.13;5033037;28;20091;-81
2021/12/21 06:43:49;;;;;;;35.55;18.50;;;;;;;-5.28;96.96;102717.16;5032950;28;20021;-82
2021/12/21 06:46:39;;;;;;;37.22;18.20;;;;;;;-5.44;97.21;102704.88;5032892;28;20512;-74
2021/12/21 06:51:54;;;;;;;32.05;17.50;;;;;;;-5.46;96.83;102709.00;5033146;28;20405;-74
2021/12/21 06:54:20;;;;;;;34.97;18.70;;;;;;;-5.51;96.53;102700.44;5032375;28;20060;-74
2021/12/21 06:56:46;;;;;;;39.15;19.00;;;;;;;-5.35;96.88;102725.31;5030508;28;20099;-73
2021/12/21 06:59:11;;;;;;;37.25;20.20;;;;;;;-5.44;96.62;102709.91;5032751;28;20037;-75
2021/12/21 07:01:38;;;;;;;38.33;18.60;;;;;;;-5.57;96.83;102692.69;5032961;28;20112;-74
2021/12/21 07:04:08;;;;;;;37.00;18.20;;;;;;;-5.52;96.55;102707.13;5032805;28;20029;-75
2021/12/21 07:06:39;;;;;;;37.53;19.38;;;;;;;-5.54;96.76;102705.38;5032471;28;20469;-76
2021/12/21 07:09:13;;;;;;;43.33;18.83;;;;;;;-5.56;96.11;102699.44;5032329;28;20042;-73
2021/12/21 07:11:55;;;;;;;33.85;18.17;;;;;;;-5.46;96.45;102719.06;5032673;28;20464;-74
2021/12/21 07:19:49;;;;;;;36.63;18.75;;;;;;;-5.44;97.06;102732.56;5032655;28;20040;-74
2021/12/21 07:22:15;;;;;;;38.90;19.63;;;;;;;-5.42;96.57;102740.16;5032473;28;20406;-82
2021/12/21 07:24:40;;;;;;;43.72;20.10;;;;;;;-5.64;96.71;102710.91;5032805;28;20362;-83
2021/12/21 07:27:06;;;;;;;42.80;19.35;;;;;;;-5.44;96.13;102739.25;5032544;28;20029;-82
2021/12/21 07:29:31;;;;;;;45.28;21.90;;;;;;;-5.77;96.69;102677.78;5032605;28;20155;-82
2021/12/21 07:31:57;;;;;;;38.55;20.23;;;;;;;-5.52;96.24;102737.34;5032247;28;20065;-83
2021/12/21 07:34:22;;;;;;;36.22;19.45;;;;;;;-5.52;96.24;102742.38;5032234;28;20022;-82
2021/12/21 07:36:48;;;;;;;39.78;21.23;;;;;;;-5.47;96.45;102744.22;5032269;28;20436;-82
2021/12/21 07:39:17;;;;;;;44.70;20.23;;;;;;;-5.49;96.19;102745.00;5015131;28;20120;-78
2021/12/21 07:41:43;;;;;;;42.13;20.92;;;;;;;-5.51;96.75;102749.13;5030075;28;20076;-74
2021/12/21 07:44:09;;;;;;;44.72;19.80;;;;;;;-5.47;96.32;102752.63;5032417;28;20049;-79
2021/12/21 07:46:35;;;;;;;39.42;19.98;;;;;;;-5.43;96.24;102749.38;5014545;28;20029;-75
2021/12/21 07:49:00;;;;;;;37.78;19.77;;;;;;;-5.59;96.11;102732.94;5032268;28;20022;-76
2021/12/21 07:51:26;;;;;;;50.20;21.42;;;;;;;-5.45;95.79;102757.69;5032228;28;20026;-81
2021/12/21 07:53:51;;;;;;;41.15;20.40;;;;;;;-5.44;96.16;102760.25;5014439;28;20037;-74
2021/12/21 07:56:17;;;;;;;40.35;21.08;;;;;;;-5.42;96.16;102758.63;5032161;28;20087;-75
2021/12/21 07:58:44;;;;;;;43.97;22.23;;;;;;;-5.40;96.27;102758.72;5014586;28;20047;-81
2021/12/21 08:01:09;;;;;;;45.47;23.00;;;;;;;-5.42;96.42;102750.22;5032104;28;20053;-81
2021/12/21 08:03:35;;;;;;;42.92;22.33;;;;;;;-5.42;95.93;102751.09;5014654;28;20064;-77
2021/12/21 08:06:03;;;;;;;43.97;21.10;;;;;;;-5.64;96.33;102719.31;5015143;28;20037;-83
2021/12/21 08:08:30;;;;;;;47.33;22.05;;;;;;;-5.52;96.58;102734.81;5035621;28;20045;-83
2021/12/21 08:13:37;;;;;;;46.78;22.73;;;;;;;-5.50;96.57;102723.16;5036030;28;20033;-83
2021/12/21 08:16:02;;;;;;;48.08;22.58;;;;;;;-5.26;96.91;102752.47;5035513;28;20461;-83
2021/12/21 08:18:28;;;;;;;47.45;23.48;;;;;;;-5.22;97.16;102756.78;5035757;28;20100;-83
2021/12/21 08:20:54;;;;;;;47.72;23.20;;;;;;;-6.03;96.65;102622.41;5035516;28;20028;-84
2021/12/21 08:23:19;;;;;;;48.17;24.02;;;;;;;-5.20;97.08;102756.06;5035688;28;20481;-83
2021/12/21 08:25:44;;;;;;;45.13;23.67;;;;;;;-5.17;96.66;102760.31;5035580;28;20038;-83
2021/12/21 08:28:10;;;;;;;45.15;22.77;;;;;;;-5.13;96.77;102756.22;5035759;28;20108;-85
2021/12/21 08:30:36;;;;;;;49.08;24.10;;;;;;;-5.06;97.29;102753.97;5035346;28;20474;-85
2021/12/21 08:33:03;;;;;;;51.63;24.55;;;;;;;-5.00;97.31;102760.88;5035447;28;20026;-85
2021/12/21 08:35:28;;;;;;;49.10;25.45;;;;;;;-4.97;97.37;102758.44;5035279;28;20029;-77
2021/12/21 08:38:00;;;;;;;51.78;24.20;;;;;;;-4.95;97.56;102761.84;5035247;28;20082;-86
2021/12/21 08:40:26;;;;;;;50.55;24.85;;;;;;;-5.17;97.35;102715.00;5035240;28;20036;-74
2021/12/21 08:42:52;;;;;;;54.47;26.58;;;;;;;-4.94;97.43;102754.34;5035250;28;20381;-82
2021/12/21 08:45:19;;;;;;;46.22;25.30;;;;;;;-4.95;97.70;102745.06;5033274;28;20052;-80
2021/12/21 08:47:44;;;;;;;51.05;27.42;;;;;;;-4.76;97.80;102766.66;5035008;28;20052;-77
2021/12/21 08:50:14;;;;;;;54.28;27.70;;;;;;;-4.75;97.74;102773.41;5035287;28;20053;-77
2021/12/21 08:52:40;;;;;;;49.75;25.77;;;;;;;-4.72;97.41;102772.66;5035044;28;20381;-72
2021/12/21 08:55:07;;;;;;;52.58;27.63;;;;;;;-4.69;97.89;102768.59;5034741;28;20029;-75
2021/12/21 08:57:33;;;;;;;53.22;27.67;;;;;;;-4.63;98.43;102772.94;5034595;28;20036;-74
2021/12/21 08:59:59;;;;;;;55.40;28.55;;;;;;;-4.54;98.59;102774.88;5034686;28;20106;-76
2021/12/21 09:02:24;;;;;;;63.75;32.28;;;;;;;-4.43;99.37;102778.56;5034559;28;20104;-78
2021/12/21 09:04:49;;;;;;;59.15;30.05;;;;;;;-4.59;99.17;102741.13;5034431;28;20033;-75
2021/12/21 09:07:15;;;;;;;65.25;30.73;;;;;;;-4.27;99.39;102773.19;5034286;28;20033;-76
2021/12/21 09:09:40;;;;;;;53.38;27.92;;;;;;;-4.15;99.42;102780.25;5016853;28;20041;-75
2021/12/21 09:12:07;;;;;;;55.47;29.15;;;;;;;-4.19;99.72;102763.31;5034137;28;20033;-74
2021/12/21 09:14:33;;;;;;;58.30;28.08;;;;;;;-4.02;99.86;102779.81;5034125;28;20504;-81
2021/12/21 09:17:00;;;;;;;53.80;28.40;;;;;;;-3.94;99.84;102780.84;5033608;28;20108;-79
2021/12/21 09:19:25;;;;;;;58.45;26.83;;;;;;;-3.89;100.00;102776.81;5034047;28;20026;-75
2021/12/21 09:21:51;;;;;;;49.08;27.95;;;;;;;-3.91;100.00;102764.97;5034115;28;20075;-75
2021/12/21 09:24:16;;;;;;;59.55;29.33;;;;;;;-3.92;100.00;102746.44;5033897;28;20053;-82
2021/12/21 09:26:42;;;;;;;61.58;28.75;;;;;;;-3.66;100.00;102782.47;5034093;28;20053;-74
2021/12/21 09:29:07;;;;;;;54.00;27.95;;;;;;;-3.67;100.00;102769.81;5033893;28;20125;-73
2021/12/21 09:31:32;;;;;;;57.80;28.13;;;;;;;-3.89;100.00;102723.81;5033800;28;20047;-74
2021/12/21 09:33:58;;;;;;;54.17;29.05;;;;;;;-3.55;100.00;102773.50;5034127;28;20017;-76
2021/12/21 09:36:25;;;;;;;57.95;29.52;;;;;;;-3.51;100.00;102774.47;5033978;28;20033;-82
2021/12/21 09:38:51;;;;;;;50.40;27.52;;;;;;;-3.65;100.00;102736.22;5033881;28;20030;-73
2021/12/21 09:41:18;;;;;;;52.13;29.50;;;;;;;-3.63;100.00;102733.75;5033668;28;20431;-75
2021/12/21 09:43:44;;;;;;;53.97;31.30;;;;;;;-3.41;100.00;102756.22;5034028;28;20381;-78
2021/12/21 09:46:10;;;;;;;55.40;29.65;;;;;;;-3.63;100.00;102718.59;5033974;28;20052;-75
2021/12/21 09:48:36;;;;;;;56.60;30.00;;;;;;;-3.41;100.00;102761.25;5033649;28;20053;-79
2021/12/21 09:51:02;;;;;;;64.30;34.50;;;;;;;-3.34;100.00;102763.13;5033654;28;20469;-75
2021/12/21 09:53:30;;;;;;;77.10;35.72;;;;;;;-3.30;100.00;102762.38;5033421;28;20025;-75
2021/12/21 09:55:55;;;;;;;69.85;36.03;;;;;;;-3.25;100.00;102759.94;5033467;28;20032;-89
2021/12/21 09:58:20;;;;;;;65.30;35.45;;;;;;;-3.16;100.00;102762.72;5033597;28;20022;-88
2021/12/21 10:00:46;;;;;;;58.60;32.75;;;;;;;-3.13;100.00;102754.38;5033501;28;20052;-87
2021/12/21 10:03:11;;;;;;;65.40;32.20;;;;;;;-3.06;100.00;102758.72;5033462;28;20030;-72
2021/12/21 10:05:42;;;;;;;54.40;31.88;;;;;;;-3.00;100.00;102756.38;5033528;28;20485;-73
2021/12/21 10:08:08;;;;;;;56.17;32.80;;;;;;;-2.88;100.00;102756.66;5033005;28;20525;-80
2021/12/21 10:10:38;;;;;;;66.65;36.13;;;;;;;-3.03;100.00;102711.66;5033354;28;20083;-77
2021/12/21 10:13:30;;;;;;;61.05;31.90;;;;;;;-2.80;100.00;102746.72;5033345;28;20354;-76
2021/12/21 10:16:02;;;;;;;58.22;30.15;;;;;;;-2.61;100.00;102756.44;5029457;28;20044;-78
2021/12/21 10:18:29;;;;;;;57.10;30.13;;;;;;;-2.55;100.00;102754.03;5032926;28;20029;-80
2021/12/21 10:20:57;;;;;;;53.60;29.75;;;;;;;-2.49;100.00;102748.25;5033052;28;20024;-83
2021/12/21 10:23:27;;;;;;;54.38;27.75;;;;;;;-2.44;100.00;102745.00;5033074;28;20035;-80
2021/12/21 10:26:12;;;;;;;47.78;26.90;;;;;;;-2.46;100.00;102734.00;5033188;28;20017;-74
2021/12/21 10:28:41;;;;;;;44.63;26.40;;;;;;;-2.44;100.00;102739.94;5032278;28;20029;-84
2021/12/21 10:31:21;;;;;;;43.10;25.05;;;;;;;-2.41;99.99;102744.22;5032827;28;20025;-87
2021/12/21 10:33:47;;;;;;;43.22;24.08;;;;;;;-2.57;99.85;102704.22;5032846;28;20153;-85
2021/12/21 10:36:16;;;;;;;42.25;24.95;;;;;;;-2.43;99.52;102723.09;5033014;28;20025;-80
2021/12/21 10:38:52;;;;;;;41.40;23.70;;;;;;;-2.32;99.42;102727.53;5032816;28;20496;-80
2021/12/21 10:41:31;;;;;;;39.47;23.73;;;;;;;-2.21;99.10;102729.44;5032738;28;20033;-84
2021/12/21 10:44:06;;;;;;;35.92;22.50;;;;;;;-2.27;98.58;102720.03;5032701;28;20040;-80
2021/12/21 10:46:34;;;;;;;37.30;21.38;;;;;;;-2.15;98.16;102734.63;5032816;28;20021;-82
2021/12/21 10:49:17;;;;;;;36.45;20.40;;;;;;;-2.11;97.83;102734.72;5032778;28;20060;-83
2021/12/21 10:52:01;;;;;;;36.65;20.35;;;;;;;-2.04;97.72;102735.69;5032599;28;20018;-79
2021/12/21 10:54:37;;;;;;;35.45;19.65;;;;;;;-1.93;97.24;102735.91;5032586;28;20033;-87
2021/12/21 10:57:10;;;;;;;32.83;18.15;;;;;;;-1.90;96.54;102734.28;5032702;28;20028;-88
2021/12/21 10:59:41;;;;;;;33.03;17.40;;;;;;;-1.85;96.49;102737.75;5032629;28;20177;-90
2021/12/21 11:02:17;;;;;;;30.02;17.63;;;;;;;-1.85;96.08;102736.91;5032710;28;20037;-88
2021/12/21 11:04:46;;;;;;;34.78;17.50;;;;;;;-1.82;95.50;102729.34;5032365;28;20021;-84
2021/12/21 11:07:25;;;;;;;30.38;17.15;;;;;;;-1.84;95.51;102731.00;5032665;28;20030;-85
2021/12/21 11:10:10;;;;;;;27.88;16.23;;;;;;;-1.95;95.40;102709.72;5032573;28;20048;-83
2021/12/21 11:12:44;;;;;;;26.55;16.10;;;;;;;-1.77;94.80;102723.56;5032588;28;20500;-84
2021/12/21 11:15:13;;;;;;;24.38;15.55;;;;;;;-1.83;94.67;102704.88;5032362;28;20029;-85
2021/12/21 11:17:39;;;;;;;31.35;17.35;;;;;;;-1.66;95.05;102713.63;5032171;28;20049;-78
2021/12/21 11:20:07;;;;;;;34.65;20.50;;;;;;;-1.59;95.92;102706.97;5032264;28;20025;-86
2021/12/21 11:22:34;;;;;;;34.50;21.13;;;;;;;-1.43;96.49;102705.56;5031935;28;20029;-85
2021/12/21 11:25:00;;;;;;;33.75;22.23;;;;;;;-1.34;96.11;102698.13;5032960;28;20128;-85
2021/12/21 11:27:31;;;;;;;34.97;20.75;;;;;;;-1.24;96.50;102692.34;5032673;28;20100;-78
2021/12/21 11:30:01;;;;;;;34.92;22.00;;;;;;;-1.25;96.05;102678.84;5032453;28;20030;-85
2021/12/21 11:32:30;;;;;;;33.65;19.75;;;;;;;-1.46;95.78;102632.91;5032133;28;20029;-80
2021/12/21 11:37:43;;;;;;;27.23;17.30;;;;;;;-1.20;95.41;102666.22;5032197;28;20044;-84
2021/12/21 11:40:11;;;;;;;25.23;15.85;;;;;;;-1.21;94.76;102669.59;5033159;28;20377;-85
2021/12/21 11:42:59;;;;;;;28.40;15.68;;;;;;;-1.36;94.31;102638.94;5035841;28;20091;-82
2021/12/21 11:45:32;;;;;;;25.98;15.60;;;;;;;-1.12;93.97;102669.72;5036222;28;20026;-78
2021/12/21 11:48:11;;;;;;;23.10;14.88;;;;;;;-1.21;93.11;102641.69;5035971;28;20030;-73
2021/12/21 11:50:40;;;;;;;27.65;14.25;;;;;;;-1.02;92.81;102665.63;5036018;28;20996;-75
2021/12/21 11:53:08;;;;;;;27.42;14.57;;;;;;;-1.02;92.46;102666.50;5035668;28;20108;-74
2021/12/21 11:55:40;;;;;;;24.10;14.48;;;;;;;-0.95;91.90;102670.81;5035769;28;20022;-84
2021/12/21 11:58:22;;;;;;;25.25;15.38;;;;;;;-0.85;91.87;102653.22;5035954;28;20021;-77
2021/12/21 12:01:00;;;;;;;23.00;14.95;;;;;;;-0.81;91.75;102668.47;5035624;28;20021;-78
2021/12/21 12:03:28;;;;;;;22.60;14.75;;;;;;;-0.85;91.93;102658.28;5017595;28;20508;-73
2021/12/21 12:06:11;;;;;;;22.98;13.93;;;;;;;-0.81;91.60;102665.09;5035549;28;20032;-75
2021/12/21 12:08:52;;;;;;;25.77;14.52;;;;;;;-0.80;91.48;102659.16;5035605;28;20536;-74
2021/12/21 12:11:27;;;;;;;21.58;11.93;;;;;;;-0.71;90.05;102657.63;5035681;28;20056;-83
2021/12/21 12:14:05;;;;;;;18.73;11.55;;;;;;;-0.71;89.87;102641.53;5035453;28;20068;-73
2021/12/21 12:16:46;;;;;;;17.17;11.35;;;;;;;-0.54;89.04;102660.38;5034331;28;20025;-72
2021/12/21 12:19:14;;;;;;;17.73;10.63;;;;;;;-0.56;88.38;102639.22;5018185;28;20030;-74
2021/12/21 12:21:53;;;;;;;18.73;11.77;;;;;;;-0.53;88.36;102629.09;5035559;28;20029;-79
2021/12/21 12:24:20;;;;;;;24.38;13.85;;;;;;;-0.48;88.05;102635.06;5035466;28;20025;-76
2021/12/21 12:26:57;;;;;;;43.53;27.85;;;;;;;-0.69;88.75;102604.34;5035321;28;20036;-73
2021/12/21 12:29:23;;;;;;;32.17;22.85;;;;;;;-0.62;87.89;102619.66;5035262;28;20025;-77
2021/12/21 12:31:57;;;;;;;21.92;13.43;;;;;;;-0.45;88.42;102649.47;5035241;28;20091;-73